Wetterdaten: Woche 01.08.16 - 07.08.16 (KW31)
Datum Zeit Temperatur Luftfeuchte Luftdruck Niederschlag Windrichtung Sonnenschein Solar Wind
01.08.2016 00:00 14,8 C 91 % 1015,1 hPa 0,0 l/m N 0,00 h 0 W/m 0,9 km/h (0 Bft)
01.08.2016 01:00 14,0 C 92 % 1015,4 hPa 0,0 l/m N 0,00 h 0 W/m 0,3 km/h (0 Bft)
01.08.2016 02:00 13,2 C 96 % 1016,0 hPa 0,0 l/m N 0,00 h 0 W/m 1,6 km/h (1 Bft)
01.08.2016 03:00 12,9 C 96 % 1016,2 hPa 0,0 l/m N 0,00 h 0 W/m 0,0 km/h (0 Bft)
01.08.2016 04:00 12,0 C 97 % 1016,2 hPa 0,0 l/m W-NW 0,00 h 0 W/m 1,5 km/h (1 Bft)
01.08.2016 05:00 11,6 C 98 % 1016,6 hPa 0,0 l/m N 0,00 h 0 W/m 0,0 km/h (0 Bft)
01.08.2016 06:00 11,6 C 98 % 1017,1 hPa 0,0 l/m N 0,08 h 16 W/m 0,0 km/h (0 Bft)
01.08.2016 07:00 12,4 C 98 % 1017,4 hPa 0,0 l/m N 0,00 h 40 W/m 0,0 km/h (0 Bft)
01.08.2016 08:00 14,0 C 94 % 1017,9 hPa 0,0 l/m N 0,75 h 281 W/m 0,3 km/h (0 Bft)
01.08.2016 09:00 16,3 C 84 % 1017,9 hPa 0,0 l/m W-NW 0,75 h 446 W/m 4,9 km/h (1 Bft)
01.08.2016 10:00 17,8 C 75 % 1017,8 hPa 0,0 l/m W-NW 0,67 h 453 W/m 4,5 km/h (1 Bft)
01.08.2016 11:00 18,7 C 67 % 1018,1 hPa 0,0 l/m W-NW 0,58 h 569 W/m 5,1 km/h (1 Bft)
01.08.2016 12:00 20,0 C 62 % 1018,1 hPa 0,0 l/m N-NW 0,75 h 732 W/m 5,1 km/h (1 Bft)
01.08.2016 13:00 20,1 C 61 % 1018,0 hPa 0,0 l/m S 0,17 h 297 W/m 7,9 km/h (2 Bft)
01.08.2016 14:00 20,0 C 61 % 1017,9 hPa 0,0 l/m W-SW 0,08 h 331 W/m 5,2 km/h (1 Bft)
01.08.2016 15:00 20,7 C 59 % 1017,5 hPa 0,0 l/m W-SW 0,42 h 451 W/m 8,6 km/h (2 Bft)
01.08.2016 16:00 21,2 C 55 % 1017,2 hPa 0,0 l/m W 0,58 h 492 W/m 9,8 km/h (2 Bft)
01.08.2016 17:00 21,2 C 56 % 1017,0 hPa 0,0 l/m W-SW 0,67 h 470 W/m 9,7 km/h (2 Bft)
01.08.2016 18:00 21,6 C 55 % 1016,8 hPa 0,0 l/m W 1,00 h 378 W/m 7,0 km/h (2 Bft)
01.08.2016 19:00 20,7 C 58 % 1016,9 hPa 0,0 l/m W 0,75 h 176 W/m 2,3 km/h (1 Bft)
01.08.2016 20:00 18,1 C 76 % 1016,9 hPa 0,0 l/m N 0,00 h 18 W/m 0,0 km/h (0 Bft)
01.08.2016 21:00 15,6 C 85 % 1017,3 hPa 0,0 l/m N 0,00 h 0 W/m 0,0 km/h (0 Bft)
01.08.2016 22:00 14,8 C 90 % 1017,6 hPa 0,0 l/m N 0,00 h 0 W/m 0,0 km/h (0 Bft)
01.08.2016 23:00 14,0 C 92 % 1017,6 hPa 0,0 l/m N 0,00 h 0 W/m 0,0 km/h (0 Bft)
02.08.2016 00:00 13,3 C 94 % 1017,5 hPa 0,0 l/m N 0,00 h 0 W/m 0,0 km/h (0 Bft)
02.08.2016 01:00 12,7 C 96 % 1017,4 hPa 0,0 l/m N 0,00 h 0 W/m 0,0 km/h (0 Bft)
02.08.2016 02:00 12,6 C 97 % 1017,3 hPa 0,0 l/m N 0,00 h 0 W/m 0,0 km/h (0 Bft)
02.08.2016 03:00 12,7 C 97 % 1016,7 hPa 0,0 l/m N 0,00 h 0 W/m 0,0 km/h (0 Bft)
02.08.2016 04:00 12,8 C 97 % 1016,7 hPa 0,0 l/m N 0,00 h 0 W/m 0,0 km/h (0 Bft)
02.08.2016 05:00 12,6 C 97 % 1016,7 hPa 0,0 l/m N 0,00 h 5 W/m 0,7 km/h (0 Bft)
02.08.2016 06:00 13,2 C 96 % 1016,9 hPa 0,0 l/m W 0,08 h 20 W/m 1,1 km/h (0 Bft)
02.08.2016 07:00 14,4 C 93 % 1017,1 hPa 0,0 l/m W 0,00 h 35 W/m 6,6 km/h (2 Bft)
02.08.2016 08:00 15,1 C 92 % 1017,3 hPa 0,0 l/m SW 0,00 h 74 W/m 7,4 km/h (2 Bft)
02.08.2016 09:00 16,4 C 91 % 1017,1 hPa 0,0 l/m SW 0,08 h 222 W/m 10,1 km/h (2 Bft)
02.08.2016 10:00 18,3 C 85 % 1016,8 hPa 0,0 l/m S-SW 0,25 h 383 W/m 13,8 km/h (3 Bft)
02.08.2016 11:00 20,0 C 73 % 1016,6 hPa 0,0 l/m W 0,58 h 495 W/m 19,0 km/h (3 Bft)
02.08.2016 12:00 21,1 C 66 % 1016,2 hPa 0,0 l/m W 0,67 h 534 W/m 19,4 km/h (3 Bft)
02.08.2016 13:00 21,5 C 64 % 1015,9 hPa 0,0 l/m W-SW 0,33 h 439 W/m 22,2 km/h (4 Bft)
02.08.2016 14:00 21,2 C 62 % 1015,7 hPa 0,0 l/m W 0,00 h 262 W/m 22,4 km/h (4 Bft)
02.08.2016 15:00 21,5 C 58 % 1015,6 hPa 0,0 l/m W-SW 0,17 h 334 W/m 25,1 km/h (4 Bft)
02.08.2016 16:00 21,3 C 62 % 1015,5 hPa 0,0 l/m W-SW 0,00 h 170 W/m 21,7 km/h (4 Bft)
02.08.2016 17:00 20,8 C 66 % 1015,5 hPa 0,0 l/m W 0,00 h 92 W/m 15,4 km/h (3 Bft)
02.08.2016 18:00 19,3 C 76 % 1015,8 hPa 0,2 l/m W-NW 0,00 h 48 W/m 8,3 km/h (2 Bft)
02.08.2016 19:00 17,1 C 90 % 1016,4 hPa 1,2 l/m W-NW 0,00 h 19 W/m 6,7 km/h (2 Bft)
02.08.2016 20:00 15,8 C 93 % 1017,1 hPa 0,8 l/m W 0,00 h 9 W/m 10,6 km/h (2 Bft)
02.08.2016 21:00 15,1 C 95 % 1017,5 hPa 0,2 l/m W 0,00 h 0 W/m 6,0 km/h (2 Bft)
02.08.2016 22:00 15,1 C 96 % 1017,5 hPa 0,2 l/m W-SW 0,00 h 0 W/m 8,4 km/h (2 Bft)
02.08.2016 23:00 15,2 C 96 % 1017,4 hPa 0,0 l/m W-SW 0,00 h 0 W/m 7,1 km/h (2 Bft)
03.08.2016 00:00 15,0 C 97 % 1017,3 hPa 0,0 l/m SW 0,00 h 0 W/m 6,3 km/h (2 Bft)
03.08.2016 01:00 15,0 C 98 % 1017,3 hPa 0,0 l/m SW 0,00 h 0 W/m 1,9 km/h (1 Bft)
03.08.2016 02:00 14,6 C 98 % 1016,9 hPa 0,0 l/m N 0,00 h 0 W/m 1,1 km/h (0 Bft)
03.08.2016 03:00 14,1 C 98 % 1016,6 hPa 0,0 l/m N 0,00 h 0 W/m 0,0 km/h (0 Bft)
03.08.2016 04:00 13,6 C 99 % 1016,2 hPa 0,0 l/m N 0,00 h 0 W/m 0,0 km/h (0 Bft)
03.08.2016 05:00 13,3 C 99 % 1015,8 hPa 0,0 l/m N 0,00 h 5 W/m 0,0 km/h (0 Bft)
03.08.2016 06:00 13,2 C 99 % 1015,7 hPa 0,2 l/m N 0,00 h 23 W/m 0,3 km/h (0 Bft)
03.08.2016 07:00 13,9 C 100 % 1015,6 hPa 0,0 l/m N 0,00 h 59 W/m 1,1 km/h (0 Bft)
03.08.2016 08:00 16,4 C 99 % 1015,1 hPa 0,0 l/m S-SW 0,83 h 290 W/m 8,2 km/h (2 Bft)
03.08.2016 09:00 18,8 C 91 % 1014,8 hPa 0,0 l/m S-SW 0,58 h 381 W/m 8,7 km/h (2 Bft)
03.08.2016 10:00 20,7 C 78 % 1014,5 hPa 0,0 l/m W-SW 0,75 h 437 W/m 16,6 km/h (3 Bft)
03.08.2016 11:00 22,2 C 70 % 1014,1 hPa 0,0 l/m W-SW 0,92 h 630 W/m 20,2 km/h (4 Bft)
03.08.2016 12:00 23,7 C 63 % 1013,6 hPa 0,0 l/m W 1,00 h 782 W/m 21,4 km/h (4 Bft)
03.08.2016 13:00 24,9 C 58 % 1013,1 hPa 0,0 l/m W-SW 1,00 h 772 W/m 20,6 km/h (4 Bft)
03.08.2016 14:00 25,4 C 55 % 1013,0 hPa 0,0 l/m W 0,92 h 678 W/m 21,0 km/h (4 Bft)
03.08.2016 15:00 25,1 C 57 % 1012,8 hPa 0,0 l/m W-SW 0,33 h 499 W/m 18,8 km/h (3 Bft)
03.08.2016 16:00 25,2 C 58 % 1012,4 hPa 0,0 l/m W 0,25 h 402 W/m 13,3 km/h (3 Bft)
03.08.2016 17:00 25,9 C 52 % 1012,0 hPa 0,0 l/m W 1,00 h 564 W/m 15,0 km/h (3 Bft)
03.08.2016 18:00 25,6 C 50 % 1012,0 hPa 0,0 l/m W-SW 1,00 h 349 W/m 11,0 km/h (2 Bft)
03.08.2016 19:00 24,4 C 58 % 1012,0 hPa 0,0 l/m W-SW 0,75 h 176 W/m 11,3 km/h (2 Bft)
03.08.2016 20:00 21,7 C 72 % 1011,9 hPa 0,0 l/m W-SW 0,00 h 19 W/m 1,1 km/h (0 Bft)
03.08.2016 21:00 19,0 C 85 % 1012,1 hPa 0,0 l/m N 0,00 h 0 W/m 0,0 km/h (0 Bft)
03.08.2016 22:00 17,6 C 91 % 1012,4 hPa 0,0 l/m N 0,00 h 0 W/m 0,0 km/h (0 Bft)
03.08.2016 23:00 16,9 C 93 % 1012,3 hPa 0,0 l/m N 0,00 h 0 W/m 0,0 km/h (0 Bft)
04.08.2016 00:00 16,1 C 95 % 1012,4 hPa 0,0 l/m N 0,00 h 0 W/m 0,0 km/h (0 Bft)
04.08.2016 01:00 15,5 C 96 % 1012,3 hPa 0,0 l/m N 0,00 h 0 W/m 0,0 km/h (0 Bft)
04.08.2016 02:00 14,8 C 97 % 1012,0 hPa 0,0 l/m N 0,00 h 0 W/m 0,0 km/h (0 Bft)
04.08.2016 03:00 14,6 C 98 % 1012,1 hPa 0,0 l/m N 0,00 h 0 W/m 0,0 km/h (0 Bft)
04.08.2016 04:00 14,1 C 98 % 1011,8 hPa 0,0 l/m N 0,00 h 0 W/m 0,0 km/h (0 Bft)
04.08.2016 05:00 13,5 C 98 % 1011,8 hPa 0,0 l/m N 0,00 h 0 W/m 0,0 km/h (0 Bft)
04.08.2016 06:00 13,1 C 98 % 1011,7 hPa 0,0 l/m N 0,00 h 19 W/m 0,0 km/h (0 Bft)
04.08.2016 07:00 15,0 C 98 % 1011,8 hPa 0,0 l/m N 0,50 h 127 W/m 0,0 km/h (0 Bft)
04.08.2016 08:00 18,0 C 91 % 1011,7 hPa 0,0 l/m N 1,00 h 305 W/m 0,0 km/h (0 Bft)
04.08.2016 09:00 21,2 C 79 % 1011,6 hPa 0,0 l/m W-SW 1,00 h 475 W/m 0,0 km/h (0 Bft)
04.08.2016 10:00 23,3 C 70 % 1011,1 hPa 0,0 l/m W-SW 0,92 h 584 W/m 7,4 km/h (2 Bft)
04.08.2016 11:00 24,9 C 64 % 1010,7 hPa 0,0 l/m S-SW 1,00 h 688 W/m 5,1 km/h (1 Bft)
04.08.2016 12:00 26,4 C 55 % 1010,3 hPa 0,0 l/m SW 1,00 h 798 W/m 3,9 km/h (1 Bft)
04.08.2016 13:00 27,8 C 48 % 1009,8 hPa 0,0 l/m S-SW 1,00 h 868 W/m 8,7 km/h (2 Bft)
04.08.2016 14:00 28,4 C 42 % 1009,0 hPa 0,0 l/m W 1,00 h 694 W/m 9,3 km/h (2 Bft)
04.08.2016 15:00 28,8 C 38 % 1008,3 hPa 0,0 l/m W 0,92 h 642 W/m 6,6 km/h (2 Bft)
04.08.2016 16:00 28,7 C 37 % 1007,5 hPa 0,0 l/m SW 0,58 h 470 W/m 5,9 km/h (2 Bft)
04.08.2016 17:00 27,2 C 44 % 1006,8 hPa 0,0 l/m SW 0,25 h 203 W/m 2,8 km/h (1 Bft)
04.08.2016 18:00 24,7 C 59 % 1006,1 hPa 0,0 l/m SW 0,00 h 75 W/m 3,2 km/h (1 Bft)
04.08.2016 19:00 22,5 C 67 % 1006,5 hPa 0,0 l/m N-NO 0,00 h 16 W/m 22,8 km/h (4 Bft)
04.08.2016 20:00 19,0 C 82 % 1008,0 hPa 2,8 l/m N-NW 0,00 h 5 W/m 29,1 km/h (5 Bft)
04.08.2016 21:00 16,6 C 95 % 1009,7 hPa 5,6 l/m N-NW 0,00 h 0 W/m 19,0 km/h (3 Bft)
04.08.2016 22:00 15,7 C 97 % 1010,9 hPa 6,4 l/m N-NW 0,00 h 0 W/m 15,4 km/h (3 Bft)
04.08.2016 23:00 15,1 C 97 % 1011,4 hPa 3,0 l/m N-NW 0,00 h 0 W/m 8,9 km/h (2 Bft)
05.08.2016 00:00 14,9 C 97 % 1011,9 hPa 2,6 l/m NW 0,00 h 0 W/m 3,2 km/h (1 Bft)
05.08.2016 01:00 14,9 C 98 % 1011,5 hPa 3,0 l/m W-NW 0,00 h 0 W/m 6,0 km/h (2 Bft)
05.08.2016 02:00 14,7 C 98 % 1011,3 hPa 3,4 l/m SW 0,00 h 0 W/m 3,3 km/h (1 Bft)
05.08.2016 03:00 14,5 C 99 % 1011,0 hPa 1,0 l/m N 0,00 h 0 W/m 0,4 km/h (0 Bft)
05.08.2016 04:00 14,3 C 99 % 1010,7 hPa 2,2 l/m N 0,00 h 0 W/m 0,0 km/h (0 Bft)
05.08.2016 05:00 13,3 C 98 % 1011,1 hPa 1,4 l/m N-NW 0,00 h 0 W/m 11,4 km/h (2 Bft)
05.08.2016 06:00 12,2 C 98 % 1011,7 hPa 0,6 l/m N 0,00 h 6 W/m 12,9 km/h (3 Bft)
05.08.2016 07:00 12,3 C 98 % 1012,3 hPa 0,8 l/m N 0,00 h 17 W/m 7,8 km/h (2 Bft)
05.08.2016 08:00 12,6 C 98 % 1013,1 hPa 0,2 l/m N 0,00 h 32 W/m 4,9 km/h (1 Bft)
05.08.2016 09:00 13,0 C 98 % 1014,4 hPa 0,8 l/m W-NW 0,00 h 36 W/m 6,8 km/h (2 Bft)
05.08.2016 10:00 13,2 C 98 % 1015,1 hPa 0,4 l/m W-NW 0,00 h 70 W/m 7,8 km/h (2 Bft)
05.08.2016 11:00 13,8 C 98 % 1016,1 hPa 0,2 l/m W-NW 0,00 h 80 W/m 6,3 km/h (2 Bft)
05.08.2016 12:00 14,1 C 98 % 1016,8 hPa 0,6 l/m W 0,00 h 146 W/m 7,9 km/h (2 Bft)
05.08.2016 13:00 14,9 C 96 % 1017,1 hPa 0,0 l/m W 0,00 h 171 W/m 7,3 km/h (2 Bft)
05.08.2016 14:00 15,6 C 93 % 1017,5 hPa 0,0 l/m W 0,00 h 230 W/m 9,1 km/h (2 Bft)
05.08.2016 15:00 16,3 C 89 % 1017,7 hPa 0,0 l/m W-SW 0,00 h 227 W/m 10,8 km/h (2 Bft)
05.08.2016 16:00 15,9 C 89 % 1018,1 hPa 0,4 l/m W-SW 0,00 h 81 W/m 8,6 km/h (2 Bft)
05.08.2016 17:00 15,3 C 94 % 1018,4 hPa 0,0 l/m W-SW 0,00 h 154 W/m 8,4 km/h (2 Bft)
05.08.2016 18:00 15,1 C 92 % 1018,7 hPa 0,0 l/m SW 0,00 h 127 W/m 9,5 km/h (2 Bft)
05.08.2016 19:00 14,2 C 94 % 1019,6 hPa 3,8 l/m SW 0,00 h 19 W/m 3,9 km/h (1 Bft)
05.08.2016 20:00 14,0 C 98 % 1020,1 hPa 0,0 l/m S-SW 0,08 h 23 W/m 8,0 km/h (2 Bft)
05.08.2016 21:00 13,7 C 98 % 1021,2 hPa 1,2 l/m S-SW 0,00 h 0 W/m 6,7 km/h (2 Bft)
05.08.2016 22:00 13,5 C 99 % 1021,6 hPa 0,2 l/m SW 0,00 h 0 W/m 10,8 km/h (2 Bft)
05.08.2016 23:00 13,5 C 99 % 1022,0 hPa 0,0 l/m SW 0,00 h 0 W/m 7,0 km/h (2 Bft)
06.08.2016 00:00 13,5 C 99 % 1022,2 hPa 0,0 l/m SW 0,00 h 0 W/m 5,7 km/h (1 Bft)
06.08.2016 01:00 13,2 C 99 % 1022,4 hPa 0,0 l/m SW 0,00 h 0 W/m 5,5 km/h (1 Bft)
06.08.2016 02:00 13,2 C 99 % 1022,6 hPa 0,0 l/m SW 0,00 h 0 W/m 2,1 km/h (1 Bft)
06.08.2016 03:00 13,0 C 100 % 1022,7 hPa 0,0 l/m SW 0,00 h 0 W/m 2,7 km/h (1 Bft)
06.08.2016 04:00 13,0 C 100 % 1022,9 hPa 0,0 l/m SW 0,00 h 0 W/m 2,3 km/h (1 Bft)
06.08.2016 05:00 12,3 C 100 % 1023,0 hPa 0,0 l/m N 0,00 h 0 W/m 0,0 km/h (0 Bft)
06.08.2016 06:00 12,1 C 100 % 1023,4 hPa 0,0 l/m SW 0,00 h 12 W/m 2,8 km/h (1 Bft)
06.08.2016 07:00 12,4 C 100 % 1023,8 hPa 0,0 l/m SW 0,00 h 27 W/m 4,4 km/h (1 Bft)
06.08.2016 08:00 13,0 C 100 % 1024,1 hPa 0,0 l/m SW 0,00 h 96 W/m 8,2 km/h (2 Bft)
06.08.2016 09:00 14,3 C 99 % 1024,5 hPa 0,0 l/m SW 0,42 h 313 W/m 7,0 km/h (2 Bft)
06.08.2016 10:00 15,9 C 92 % 1024,8 hPa 0,0 l/m SW 0,25 h 329 W/m 4,8 km/h (1 Bft)
06.08.2016 11:00 17,6 C 84 % 1025,0 hPa 0,0 l/m SW 0,75 h 654 W/m 5,5 km/h (1 Bft)
06.08.2016 12:00 18,2 C 77 % 1024,8 hPa 0,0 l/m SW 0,42 h 503 W/m 5,5 km/h (1 Bft)
06.08.2016 13:00 20,5 C 66 % 1024,5 hPa 0,0 l/m W-NW 0,75 h 794 W/m 10,6 km/h (2 Bft)
06.08.2016 14:00 20,6 C 64 % 1024,3 hPa 0,0 l/m W 0,50 h 621 W/m 9,8 km/h (2 Bft)
06.08.2016 15:00 20,2 C 64 % 1024,3 hPa 0,0 l/m W 0,00 h 209 W/m 2,5 km/h (1 Bft)
06.08.2016 16:00 20,1 C 66 % 1024,2 hPa 0,0 l/m N 0,00 h 130 W/m 4,7 km/h (1 Bft)
06.08.2016 17:00 19,4 C 72 % 1024,4 hPa 0,0 l/m N 0,00 h 109 W/m 9,5 km/h (2 Bft)
06.08.2016 18:00 19,6 C 70 % 1024,6 hPa 0,0 l/m N 0,00 h 116 W/m 3,9 km/h (1 Bft)
06.08.2016 19:00 18,5 C 81 % 1024,8 hPa 0,0 l/m N 0,00 h 26 W/m 1,2 km/h (1 Bft)
06.08.2016 20:00 17,5 C 79 % 1025,5 hPa 0,0 l/m N 0,00 h 7 W/m 7,0 km/h (2 Bft)
06.08.2016 21:00 16,6 C 84 % 1026,0 hPa 0,0 l/m N 0,00 h 0 W/m 0,5 km/h (0 Bft)
06.08.2016 22:00 15,6 C 89 % 1026,4 hPa 0,0 l/m N 0,00 h 0 W/m 0,8 km/h (0 Bft)
06.08.2016 23:00 15,0 C 91 % 1026,6 hPa 0,0 l/m N 0,00 h 0 W/m 0,0 km/h (0 Bft)
07.08.2016 00:00 13,8 C 94 % 1027,0 hPa 0,0 l/m N 0,00 h 0 W/m 0,0 km/h (0 Bft)
07.08.2016 01:00 12,8 C 96 % 1027,0 hPa 0,0 l/m N 0,00 h 0 W/m 0,8 km/h (0 Bft)
07.08.2016 02:00 12,5 C 96 % 1026,8 hPa 0,0 l/m N 0,00 h 0 W/m 4,0 km/h (1 Bft)
07.08.2016 03:00 12,4 C 96 % 1026,5 hPa 0,0 l/m N 0,00 h 0 W/m 3,7 km/h (1 Bft)
07.08.2016 04:00 11,3 C 97 % 1026,4 hPa 0,0 l/m N 0,00 h 0 W/m 0,0 km/h (0 Bft)
07.08.2016 05:00 10,9 C 98 % 1026,3 hPa 0,0 l/m N 0,00 h 0 W/m 0,0 km/h (0 Bft)
07.08.2016 06:00 10,8 C 98 % 1026,8 hPa 0,0 l/m N 0,00 h 15 W/m 0,0 km/h (0 Bft)
07.08.2016 07:00 12,4 C 97 % 1027,0 hPa 0,0 l/m N 0,42 h 113 W/m 0,0 km/h (0 Bft)
07.08.2016 08:00 14,9 C 91 % 1027,1 hPa 0,0 l/m N 1,00 h 288 W/m 0,3 km/h (0 Bft)
07.08.2016 09:00 17,4 C 84 % 1027,1 hPa 0,0 l/m N 1,00 h 458 W/m 1,6 km/h (1 Bft)
07.08.2016 10:00 19,7 C 74 % 1027,0 hPa 0,0 l/m O 1,00 h 656 W/m 5,7 km/h (1 Bft)
07.08.2016 11:00 21,2 C 64 % 1026,6 hPa 0,0 l/m SO 0,83 h 700 W/m 9,4 km/h (2 Bft)
07.08.2016 12:00 21,9 C 60 % 1026,3 hPa 0,0 l/m SO 0,75 h 678 W/m 7,5 km/h (2 Bft)
07.08.2016 13:00 23,0 C 54 % 1025,9 hPa 0,0 l/m O 0,92 h 841 W/m 9,8 km/h (2 Bft)
07.08.2016 14:00 23,6 C 50 % 1025,2 hPa 0,0 l/m O-NO 1,00 h 881 W/m 9,6 km/h (2 Bft)
07.08.2016 15:00 24,3 C 48 % 1024,7 hPa 0,0 l/m O 1,00 h 790 W/m 8,6 km/h (2 Bft)
07.08.2016 16:00 24,7 C 46 % 1024,2 hPa 0,0 l/m O-SO 1,00 h 680 W/m 8,4 km/h (2 Bft)
07.08.2016 17:00 24,6 C 46 % 1023,7 hPa 0,0 l/m O 1,00 h 537 W/m 8,0 km/h (2 Bft)
07.08.2016 18:00 24,3 C 47 % 1023,2 hPa 0,0 l/m O 1,00 h 371 W/m 4,9 km/h (1 Bft)
07.08.2016 19:00 22,8 C 56 % 1022,9 hPa 0,0 l/m N 0,67 h 145 W/m 0,9 km/h (0 Bft)
07.08.2016 20:00 18,7 C 74 % 1022,8 hPa 0,0 l/m N 0,00 h 12 W/m 0,1 km/h (0 Bft)
07.08.2016 21:00 16,4 C 82 % 1022,9 hPa 0,0 l/m N 0,00 h 0 W/m 0,0 km/h (0 Bft)
07.08.2016 22:00 14,9 C 88 % 1022,8 hPa 0,0 l/m N 0,00 h 0 W/m 0,0 km/h (0 Bft)
07.08.2016 23:00 14,3 C 91 % 1022,5 hPa 0,0 l/m N 0,00 h 0 W/m 0,0 km/h (0 Bft)
Min-Datum _ 07.08.16 04.08.16 04.08.16 - - - - 01.08.16
_ Min-Zeit 06:10 16:05 18:55 - - - - 00:05
Minimum _ 10,6 C 34 % 1005,8 hPa - - - - 0,0 km/h (0 Bft)
Max-Datum _ 04.08.16 03.08.16 07.08.16 04.08.16 - 01.08.16 01.08.16 04.08.16
_ Max-Zeit 16:10 07:15 08:25 22:10 - 06:10 13:05 20:10
Maximum _ 29,7 C 100 % 1027,3 hPa 6,4 l/m - 0,08 h 1106 W/m 38,6 km/h
N-NW (5 Bft)
Durchschnitt _ 17,2 C 83 % 1017,7 hPa #43,4 l/m SW #42:40 h 307 W/m 6,0 km/h (2 Bft)